Terminal Aerodrome Forecast
Issued by NWS

Home | Current Version | Previous Version | Text Only | Print | Product List | Glossary On
Versions: 1 2 3 4 5 6 7 8 9 10 11 12 13 14 15 16 17 18 19
000
FTUS46 KPQR 240524
TAFONP
TAF
KONP 240524Z 2406/2506 16006KT P6SM SCT040 BKN050
      TEMPO 2406/2409 6SM -SHRA BKN040 OVC060
     FM241400 10006KT P6SM OVC150
     FM241900 10007KT P6SM -RA OVC060
     FM250400 08008KT P6SM -RA SCT060 OVC100=

USA.gov is the U.S. government's official web portal to all federal, state and local government web resources and services.